THY2332 LTFM-LTBJ
Flight info
| Callsign | THY2332 |
|---|---|
| Flight time | 0h 45m |
| Altitude | 33000 |
| Route | IVGUS1E/36 IVGUS UM19 OVZOK |
| Aircraft | A20N/M-SDE2E3FGHIRWXY/LB1 |
Departure
| Time | 2026-05-06 14:19 |
|---|---|
| Airport | İstanbul Airport (LTFM) |
Arrival
| Time | 2026-05-06 15:04 |
|---|---|
| Airport | Adnan Menderes International Airport (LTBJ) |
| Time | Latitude | Longitude | Altitude | Speed | Heading |
|---|---|---|---|---|---|
| 2026-05-06 14:02 | 41.25889 | 28.75029 | 334 ft | 0 kts | 250° |
| 2026-05-06 14:12 | 41.25891 | 28.75036 | 331 ft | 2 kts | 250° |
| 2026-05-06 14:12 | 41.25895 | 28.75053 | 329 ft | 2 kts | 255° |
| 2026-05-06 14:12 | 41.25898 | 28.75070 | 330 ft | 1 kts | 259° |
| 2026-05-06 14:12 | 41.25900 | 28.75086 | 332 ft | 1 kts | 266° |
| 2026-05-06 14:13 | 41.25900 | 28.75102 | 331 ft | 1 kts | 280° |
| 2026-05-06 14:13 | 41.25897 | 28.75118 | 332 ft | 1 kts | 305° |
| 2026-05-06 14:13 | 41.25889 | 28.75129 | 332 ft | 1 kts | 332° |
| 2026-05-06 14:13 | 41.25881 | 28.75134 | 333 ft | 1 kts | 342° |
| 2026-05-06 14:14 | 41.25879 | 28.75135 | 333 ft | 0 kts | 342° |
| 2026-05-06 14:14 | 41.25880 | 28.75135 | 331 ft | 0 kts | 342° |
| 2026-05-06 14:15 | 41.25883 | 28.75133 | 330 ft | 4 kts | 342° |
| 2026-05-06 14:15 | 41.25963 | 28.75099 | 331 ft | 17 kts | 342° |
| 2026-05-06 14:16 | 41.26094 | 28.75037 | 333 ft | 22 kts | 342° |
| 2026-05-06 14:16 | 41.26221 | 28.75007 | 332 ft | 16 kts | 28° |
| 2026-05-06 14:16 | 41.26249 | 28.75134 | 334 ft | 16 kts | 89° |
| 2026-05-06 14:16 | 41.26250 | 28.75304 | 334 ft | 20 kts | 92° |
| 2026-05-06 14:17 | 41.26249 | 28.75478 | 334 ft | 14 kts | 89° |
| 2026-05-06 14:17 | 41.26249 | 28.75525 | 334 ft | 0 kts | 89° |
| 2026-05-06 14:18 | 41.26250 | 28.75583 | 334 ft | 12 kts | 89° |
| 2026-05-06 14:18 | 41.26305 | 28.75667 | 332 ft | 15 kts | 6° |
| 2026-05-06 14:18 | 41.26522 | 28.75665 | 332 ft | 68 kts | 359° |
| 2026-05-06 14:19 | 41.27276 | 28.75651 | 333 ft | 143 kts | 359° |
| 2026-05-06 14:19 | 41.28386 | 28.75620 | 766 ft | 169 kts | 3° |
| 2026-05-06 14:19 | 41.29636 | 28.75657 | 1505 ft | 187 kts | 4° |
| 2026-05-06 14:19 | 41.30925 | 28.75695 | 2576 ft | 188 kts | 359° |
| 2026-05-06 14:20 | 41.32271 | 28.76004 | 3339 ft | 209 kts | 24° |
| 2026-05-06 14:20 | 41.33371 | 28.77209 | 4014 ft | 232 kts | 45° |
| 2026-05-06 14:20 | 41.34514 | 28.78854 | 4820 ft | 252 kts | 42° |
| 2026-05-06 14:20 | 41.35857 | 28.80410 | 6036 ft | 254 kts | 34° |
| 2026-05-06 14:21 | 41.37231 | 28.81868 | 7448 ft | 256 kts | 44° |
| 2026-05-06 14:21 | 41.38175 | 28.83920 | 8883 ft | 267 kts | 69° |
| 2026-05-06 14:21 | 41.38404 | 28.86405 | 10247 ft | 280 kts | 85° |
| 2026-05-06 14:21 | 41.38160 | 28.89119 | 11091 ft | 311 kts | 104° |
| 2026-05-06 14:22 | 41.37102 | 28.91769 | 11846 ft | 341 kts | 127° |
| 2026-05-06 14:22 | 41.35228 | 28.93869 | 12657 ft | 364 kts | 150° |
| 2026-05-06 14:22 | 41.32790 | 28.94932 | 13831 ft | 373 kts | 172° |
| 2026-05-06 14:22 | 41.30212 | 28.95096 | 14869 ft | 379 kts | 181° |
| 2026-05-06 14:23 | 41.27562 | 28.94981 | 15936 ft | 384 kts | 187° |
| 2026-05-06 14:23 | 41.24926 | 28.94253 | 16997 ft | 389 kts | 200° |
| 2026-05-06 14:23 | 41.22438 | 28.92821 | 18040 ft | 392 kts | 211° |
| 2026-05-06 14:23 | 41.20046 | 28.91028 | 18987 ft | 398 kts | 212° |
| 2026-05-06 14:24 | 41.17605 | 28.89238 | 19937 ft | 402 kts | 211° |
| 2026-05-06 14:24 | 41.15140 | 28.87454 | 20868 ft | 407 kts | 211° |
| 2026-05-06 14:24 | 41.12632 | 28.85651 | 21750 ft | 412 kts | 211° |
| 2026-05-06 14:24 | 41.10092 | 28.83829 | 22651 ft | 417 kts | 212° |
| 2026-05-06 14:25 | 41.07538 | 28.81943 | 23518 ft | 421 kts | 215° |
| 2026-05-06 14:25 | 41.05138 | 28.79696 | 24254 ft | 424 kts | 221° |
| 2026-05-06 14:25 | 41.02779 | 28.77314 | 24983 ft | 429 kts | 221° |
| 2026-05-06 14:25 | 41.00377 | 28.74899 | 25700 ft | 434 kts | 221° |
| 2026-05-06 14:26 | 40.97995 | 28.72512 | 26367 ft | 438 kts | 221° |
| 2026-05-06 14:26 | 40.95544 | 28.70061 | 27030 ft | 443 kts | 221° |
| 2026-05-06 14:26 | 40.93199 | 28.67418 | 27675 ft | 442 kts | 231° |
| 2026-05-06 14:26 | 40.91356 | 28.64192 | 28298 ft | 437 kts | 245° |
| 2026-05-06 14:27 | 40.90131 | 28.60551 | 28927 ft | 432 kts | 258° |
| 2026-05-06 14:27 | 40.89470 | 28.56688 | 29512 ft | 431 kts | 265° |
| 2026-05-06 14:27 | 40.88970 | 28.52761 | 30112 ft | 434 kts | 266° |
| 2026-05-06 14:27 | 40.88475 | 28.48816 | 30624 ft | 437 kts | 265° |
| 2026-05-06 14:28 | 40.87970 | 28.45036 | 31088 ft | 442 kts | 265° |
| 2026-05-06 14:28 | 40.87409 | 28.41067 | 31642 ft | 443 kts | 264° |
| 2026-05-06 14:28 | 40.86842 | 28.37196 | 32270 ft | 443 kts | 264° |
| 2026-05-06 14:28 | 40.86248 | 28.33206 | 32844 ft | 441 kts | 264° |
| 2026-05-06 14:29 | 40.85653 | 28.29237 | 33035 ft | 439 kts | 264° |
| 2026-05-06 14:29 | 40.85060 | 28.25287 | 33058 ft | 438 kts | 264° |
| 2026-05-06 14:29 | 40.83873 | 28.17386 | 33065 ft | 438 kts | 264° |
| 2026-05-06 14:30 | 40.82681 | 28.09483 | 33065 ft | 438 kts | 264° |
| 2026-05-06 14:30 | 40.81486 | 28.01603 | 33066 ft | 437 kts | 264° |
| 2026-05-06 14:31 | 40.80287 | 27.93737 | 33074 ft | 437 kts | 264° |
| 2026-05-06 14:31 | 40.79459 | 27.85843 | 33071 ft | 431 kts | 273° |
| 2026-05-06 14:32 | 40.79074 | 27.78008 | 33068 ft | 438 kts | 261° |
| 2026-05-06 14:32 | 40.78035 | 27.74204 | 33064 ft | 447 kts | 249° |
| 2026-05-06 14:32 | 40.76364 | 27.70699 | 33063 ft | 456 kts | 237° |
| 2026-05-06 14:33 | 40.74131 | 27.67682 | 33061 ft | 465 kts | 224° |
| 2026-05-06 14:33 | 40.71423 | 27.65293 | 33060 ft | 473 kts | 212° |
| 2026-05-06 14:33 | 40.68351 | 27.63642 | 33061 ft | 480 kts | 201° |
| 2026-05-06 14:33 | 40.65258 | 27.62407 | 33058 ft | 480 kts | 202° |
| 2026-05-06 14:34 | 40.59079 | 27.59177 | 33064 ft | 475 kts | 210° |
| 2026-05-06 14:34 | 40.52891 | 27.56197 | 33056 ft | 485 kts | 193° |
| 2026-05-06 14:35 | 40.49514 | 27.55891 | 33056 ft | 491 kts | 180° |
| 2026-05-06 14:35 | 40.46112 | 27.56471 | 33055 ft | 495 kts | 168° |
| 2026-05-06 14:35 | 40.39497 | 27.59062 | 33058 ft | 496 kts | 167° |
| 2026-05-06 14:36 | 40.32743 | 27.60008 | 33059 ft | 489 kts | 187° |
| 2026-05-06 14:36 | 40.26051 | 27.58860 | 33061 ft | 487 kts | 193° |
| 2026-05-06 14:37 | 40.19341 | 27.57448 | 33059 ft | 488 kts | 192° |
| 2026-05-06 14:37 | 40.12616 | 27.56117 | 33068 ft | 489 kts | 192° |
| 2026-05-06 14:38 | 40.05918 | 27.54829 | 33067 ft | 489 kts | 192° |
| 2026-05-06 14:38 | 39.99174 | 27.53542 | 33059 ft | 489 kts | 192° |
| 2026-05-06 14:39 | 39.92442 | 27.52257 | 33058 ft | 489 kts | 192° |
| 2026-05-06 14:39 | 39.85708 | 27.50975 | 33054 ft | 489 kts | 192° |
| 2026-05-06 14:40 | 39.78964 | 27.49695 | 33061 ft | 490 kts | 192° |
| 2026-05-06 14:40 | 39.72210 | 27.48413 | 33056 ft | 490 kts | 192° |
| 2026-05-06 14:41 | 39.65456 | 27.47137 | 33052 ft | 491 kts | 192° |
| 2026-05-06 14:41 | 39.62084 | 27.46504 | 32832 ft | 488 kts | 193° |
| 2026-05-06 14:41 | 39.58758 | 27.45880 | 32086 ft | 488 kts | 192° |
| 2026-05-06 14:42 | 39.55387 | 27.45245 | 31032 ft | 492 kts | 192° |
| 2026-05-06 14:42 | 39.51965 | 27.44599 | 29696 ft | 498 kts | 192° |
| 2026-05-06 14:42 | 39.48519 | 27.43950 | 28416 ft | 501 kts | 192° |
| 2026-05-06 14:42 | 39.45079 | 27.43308 | 27535 ft | 494 kts | 192° |
| 2026-05-06 14:43 | 39.41717 | 27.42684 | 26958 ft | 481 kts | 192° |
| 2026-05-06 14:43 | 39.38459 | 27.42070 | 26647 ft | 462 kts | 193° |
| 2026-05-06 14:43 | 39.35381 | 27.41144 | 26403 ft | 450 kts | 201° |
| 2026-05-06 14:43 | 39.32364 | 27.39989 | 25968 ft | 454 kts | 201° |
| 2026-05-06 14:44 | 39.29327 | 27.38836 | 25313 ft | 455 kts | 200° |
| 2026-05-06 14:44 | 39.26315 | 27.37704 | 24824 ft | 446 kts | 200° |
| 2026-05-06 14:44 | 39.23360 | 27.36600 | 24222 ft | 438 kts | 200° |
| 2026-05-06 14:45 | 39.17643 | 27.34468 | 23020 ft | 424 kts | 200° |
| 2026-05-06 14:45 | 39.14821 | 27.33414 | 22583 ft | 422 kts | 200° |
| 2026-05-06 14:45 | 39.11997 | 27.32358 | 22139 ft | 423 kts | 200° |
| 2026-05-06 14:45 | 39.09172 | 27.31306 | 21579 ft | 419 kts | 200° |
| 2026-05-06 14:46 | 39.06391 | 27.30271 | 20908 ft | 414 kts | 199° |
| 2026-05-06 14:46 | 39.03629 | 27.29245 | 20214 ft | 410 kts | 199° |
| 2026-05-06 14:46 | 39.00903 | 27.28232 | 19540 ft | 406 kts | 199° |
| 2026-05-06 14:46 | 38.98208 | 27.27231 | 18887 ft | 401 kts | 199° |
| 2026-05-06 14:47 | 38.95530 | 27.26237 | 18219 ft | 398 kts | 199° |
| 2026-05-06 14:47 | 38.92885 | 27.25256 | 17525 ft | 393 kts | 199° |
| 2026-05-06 14:47 | 38.90307 | 27.24302 | 16815 ft | 389 kts | 199° |
| 2026-05-06 14:47 | 38.87675 | 27.23523 | 16125 ft | 386 kts | 191° |
| 2026-05-06 14:48 | 38.85002 | 27.23241 | 15490 ft | 384 kts | 182° |
| 2026-05-06 14:48 | 38.82346 | 27.23284 | 14826 ft | 381 kts | 181° |
| 2026-05-06 14:48 | 38.79713 | 27.23291 | 14210 ft | 376 kts | 184° |
| 2026-05-06 14:48 | 38.77135 | 27.23206 | 13946 ft | 362 kts | 181° |
| 2026-05-06 14:49 | 38.74675 | 27.23271 | 13790 ft | 346 kts | 180° |
| 2026-05-06 14:49 | 38.72321 | 27.23350 | 13635 ft | 332 kts | 180° |
| 2026-05-06 14:49 | 38.70040 | 27.23406 | 13303 ft | 324 kts | 181° |
| 2026-05-06 14:49 | 38.67806 | 27.23303 | 12848 ft | 319 kts | 189° |
| 2026-05-06 14:50 | 38.65653 | 27.22705 | 12404 ft | 314 kts | 198° |
| 2026-05-06 14:50 | 38.63560 | 27.21935 | 11898 ft | 313 kts | 198° |
| 2026-05-06 14:50 | 38.61469 | 27.21181 | 11468 ft | 310 kts | 198° |
| 2026-05-06 14:50 | 38.59398 | 27.20444 | 11055 ft | 308 kts | 197° |
| 2026-05-06 14:51 | 38.57550 | 27.19790 | 10694 ft | 306 kts | 197° |
| 2026-05-06 14:51 | 38.55469 | 27.19208 | 10280 ft | 305 kts | 186° |
| 2026-05-06 14:51 | 38.53357 | 27.19301 | 9889 ft | 303 kts | 170° |
| 2026-05-06 14:51 | 38.51314 | 27.19919 | 9467 ft | 301 kts | 166° |
| 2026-05-06 14:52 | 38.49281 | 27.20552 | 8978 ft | 299 kts | 166° |
| 2026-05-06 14:52 | 38.47290 | 27.21159 | 8558 ft | 296 kts | 166° |
| 2026-05-06 14:52 | 38.45299 | 27.21761 | 8102 ft | 294 kts | 166° |
| 2026-05-06 14:52 | 38.43315 | 27.22356 | 7672 ft | 291 kts | 166° |
| 2026-05-06 14:53 | 38.41351 | 27.22944 | 7251 ft | 289 kts | 166° |
| 2026-05-06 14:53 | 38.39412 | 27.23524 | 7012 ft | 280 kts | 166° |
| 2026-05-06 14:53 | 38.37555 | 27.24080 | 6872 ft | 268 kts | 166° |
| 2026-05-06 14:53 | 38.35752 | 27.24624 | 6606 ft | 264 kts | 166° |
| 2026-05-06 14:54 | 38.33969 | 27.25155 | 6262 ft | 262 kts | 166° |
| 2026-05-06 14:54 | 38.32202 | 27.25686 | 5914 ft | 262 kts | 166° |
| 2026-05-06 14:54 | 38.30418 | 27.26221 | 5515 ft | 262 kts | 166° |
| 2026-05-06 14:54 | 38.28645 | 27.26754 | 5208 ft | 260 kts | 166° |
| 2026-05-06 14:55 | 38.26928 | 27.27271 | 5020 ft | 252 kts | 167° |
| 2026-05-06 14:55 | 38.25203 | 27.27789 | 4998 ft | 261 kts | 167° |
| 2026-05-06 14:55 | 38.23421 | 27.28320 | 4999 ft | 263 kts | 167° |
| 2026-05-06 14:55 | 38.21656 | 27.28841 | 5001 ft | 260 kts | 167° |
| 2026-05-06 14:56 | 38.19888 | 27.29365 | 4999 ft | 261 kts | 167° |
| 2026-05-06 14:56 | 38.18131 | 27.29884 | 4999 ft | 260 kts | 167° |
| 2026-05-06 14:56 | 38.16396 | 27.30404 | 4996 ft | 252 kts | 167° |
| 2026-05-06 14:56 | 38.14714 | 27.30912 | 4997 ft | 248 kts | 167° |
| 2026-05-06 14:57 | 38.13020 | 27.31419 | 5015 ft | 251 kts | 166° |
| 2026-05-06 14:57 | 38.11327 | 27.31926 | 5019 ft | 249 kts | 166° |
| 2026-05-06 14:57 | 38.09638 | 27.32329 | 4957 ft | 246 kts | 180° |
| 2026-05-06 14:57 | 38.08027 | 27.31834 | 4835 ft | 232 kts | 213° |
| 2026-05-06 14:58 | 38.07224 | 27.31002 | 4674 ft | 223 kts | 233° |
| 2026-05-06 14:58 | 38.06607 | 27.29319 | 4300 ft | 204 kts | 261° |
| 2026-05-06 14:58 | 38.06420 | 27.27552 | 4037 ft | 211 kts | 268° |
| 2026-05-06 14:58 | 38.06271 | 27.25713 | 4164 ft | 209 kts | 268° |
| 2026-05-06 14:59 | 38.06463 | 27.24028 | 4153 ft | 196 kts | 297° |
| 2026-05-06 14:59 | 38.07287 | 27.22801 | 4064 ft | 177 kts | 324° |
| 2026-05-06 14:59 | 38.08391 | 27.22069 | 3982 ft | 181 kts | 339° |
| 2026-05-06 14:59 | 38.09588 | 27.21608 | 3886 ft | 180 kts | 345° |
| 2026-05-06 15:00 | 38.10813 | 27.21242 | 3696 ft | 180 kts | 346° |
| 2026-05-06 15:00 | 38.12016 | 27.20879 | 3494 ft | 179 kts | 346° |
| 2026-05-06 15:00 | 38.13214 | 27.20519 | 3270 ft | 176 kts | 346° |
| 2026-05-06 15:00 | 38.14423 | 27.20156 | 3038 ft | 179 kts | 346° |
| 2026-05-06 15:01 | 38.15646 | 27.19783 | 2806 ft | 182 kts | 344° |
| 2026-05-06 15:01 | 38.16842 | 27.19425 | 2570 ft | 168 kts | 344° |
| 2026-05-06 15:01 | 38.17916 | 27.19110 | 2366 ft | 151 kts | 344° |
| 2026-05-06 15:01 | 38.18980 | 27.18782 | 2159 ft | 161 kts | 343° |
| 2026-05-06 15:02 | 38.20067 | 27.18460 | 1953 ft | 161 kts | 342° |
| 2026-05-06 15:02 | 38.21107 | 27.18147 | 1731 ft | 143 kts | 344° |
| 2026-05-06 15:02 | 38.22012 | 27.17874 | 1553 ft | 127 kts | 342° |
| 2026-05-06 15:02 | 38.22841 | 27.17626 | 1385 ft | 116 kts | 343° |
| 2026-05-06 15:03 | 38.23666 | 27.17368 | 1244 ft | 127 kts | 343° |
| 2026-05-06 15:03 | 38.24517 | 27.17117 | 1103 ft | 126 kts | 343° |
| 2026-05-06 15:03 | 38.25380 | 27.16854 | 925 ft | 128 kts | 343° |
| 2026-05-06 15:03 | 38.26221 | 27.16591 | 750 ft | 121 kts | 345° |
| 2026-05-06 15:04 | 38.27048 | 27.16351 | 624 ft | 123 kts | 345° |
| 2026-05-06 15:04 | 38.27872 | 27.16107 | 437 ft | 120 kts | 344° |
| 2026-05-06 15:04 | 38.28585 | 27.15881 | 418 ft | 80 kts | 345° |
| 2026-05-06 15:04 | 38.28957 | 27.15767 | 414 ft | 43 kts | 346° |
| 2026-05-06 15:05 | 38.29248 | 27.15688 | 413 ft | 43 kts | 348° |
| 2026-05-06 15:05 | 38.29417 | 27.15616 | 411 ft | 7 kts | 291° |
| 2026-05-06 15:05 | 38.29414 | 27.15543 | 416 ft | 0 kts | 256° |
| 2026-05-06 15:06 | 38.29408 | 27.15512 | 419 ft | 14 kts | 256° |
| 2026-05-06 15:06 | 38.29378 | 27.15354 | 419 ft | 22 kts | 256° |
| 2026-05-06 15:07 | 38.29348 | 27.15148 | 411 ft | 23 kts | 279° |